createdAt,value
2019-01-02T00:00:47.271Z,99695.91
2019-01-02T00:03:13.568Z,99696.67
2019-01-02T00:05:41.625Z,99685.22
2019-01-02T00:08:07.879Z,99682.94
2019-01-02T00:10:35.984Z,99684.45
2019-01-02T00:15:49.916Z,99677.40
2019-01-02T00:18:16.266Z,99678.72
2019-01-02T00:20:42.424Z,99680.66
2019-01-02T00:23:10.510Z,99681.73
2019-01-02T00:25:36.867Z,99680.04
2019-01-02T00:28:04.923Z,99668.97
2019-01-02T00:30:31.105Z,99675.75
2019-01-02T00:32:59.172Z,99676.68
2019-01-02T00:35:25.323Z,99680.77
2019-01-02T00:37:53.424Z,99675.27
2019-01-02T00:40:19.568Z,99666.00
2019-01-02T00:42:45.920Z,99663.34
2019-01-02T00:45:12.103Z,99658.41
2019-01-02T00:47:40.155Z,99656.90
2019-01-02T00:50:26.195Z,99649.59
2019-01-02T00:52:52.354Z,99647.09
2019-01-02T00:55:18.508Z,99646.99
2019-01-02T00:57:44.692Z,99645.83
2019-01-02T01:00:30.729Z,99638.14
2019-01-02T01:02:56.916Z,99638.60
2019-01-02T01:05:23.070Z,99637.57
2019-01-02T01:07:49.227Z,99627.04
2019-01-02T01:10:56.821Z,99629.64
2019-01-02T01:13:22.983Z,99622.83
2019-01-02T01:15:51.039Z,99622.32
2019-01-02T01:18:17.338Z,99620.50
2019-01-02T01:20:45.395Z,99611.60
2019-01-02T01:23:11.551Z,99612.95
2019-01-02T01:25:39.689Z,99601.94
2019-01-02T01:28:05.843Z,99612.02
2019-01-02T01:30:31.998Z,99602.66
2019-01-02T01:33:00.189Z,99595.83
2019-01-02T01:35:26.344Z,99591.77
2019-01-02T01:37:54.505Z,99593.36
2019-01-02T01:40:20.715Z,99584.34
2019-01-02T01:42:46.873Z,99576.84
2019-01-02T01:45:13.247Z,99579.13
2019-01-02T01:47:39.426Z,99576.23
2019-01-02T01:53:07.993Z,99555.80
2019-01-02T01:55:34.139Z,99545.34
2019-01-02T01:58:00.289Z,99548.47
2019-01-02T02:00:26.489Z,99542.77
2019-01-02T02:02:52.663Z,99534.92
2019-01-02T02:05:20.715Z,99525.23
2019-01-02T02:07:46.897Z,99514.45
2019-01-02T02:10:15.155Z,99502.99
2019-01-02T02:12:41.314Z,99501.79
2019-01-02T02:15:48.951Z,99498.28
2019-01-02T02:18:15.116Z,99503.94
2019-01-02T02:20:43.176Z,99496.92
2019-01-02T02:23:09.359Z,99490.64
2019-01-02T02:25:37.413Z,99486.28
2019-01-02T02:28:03.580Z,99491.41
2019-01-02T02:30:29.977Z,99492.47
2019-01-02T02:35:48.376Z,99478.95
2019-01-02T02:38:16.432Z,99475.27
2019-01-02T02:40:44.492Z,99486.70
2019-01-02T02:43:10.779Z,99481.42
2019-01-02T02:45:36.935Z,99485.21
2019-01-02T02:48:04.990Z,99483.75
2019-01-02T02:50:33.081Z,99478.72
2019-01-02T02:53:01.254Z,99475.90
2019-01-02T02:55:27.603Z,99473.72
2019-01-02T02:57:53.801Z,99471.28
2019-01-02T03:00:19.959Z,99466.33
2019-01-02T03:02:46.117Z,99461.25
2019-01-02T03:05:53.714Z,99458.03
2019-01-02T03:08:19.874Z,99446.14
2019-01-02T03:10:47.928Z,99444.11
2019-01-02T03:13:16.027Z,99442.64
2019-01-02T03:15:44.188Z,99440.90
2019-01-02T03:18:10.540Z,99438.47
2019-01-02T03:20:36.729Z,99437.14
2019-01-02T03:23:02.892Z,99437.83
2019-01-02T03:25:30.956Z,99428.27
2019-01-02T03:27:59.093Z,99422.04
2019-01-02T03:30:27.152Z,99419.72
2019-01-02T03:32:55.212Z,99417.42
2019-01-02T03:35:23.436Z,99419.70
2019-01-02T03:37:49.595Z,99415.25
2019-01-02T03:40:15.755Z,99405.14
2019-01-02T03:42:41.943Z,99405.39
2019-01-02T03:51:22.920Z,99396.75
2019-01-02T03:53:49.081Z,99394.69
2019-01-02T03:56:15.232Z,99396.33
2019-01-02T03:58:41.417Z,99384.59
2019-01-02T04:01:07.577Z,99381.20
2019-01-02T04:03:33.727Z,99379.16
2019-01-02T04:05:59.917Z,99381.66
2019-01-02T04:09:07.510Z,99377.73
2019-01-02T04:11:33.711Z,99380.08
2019-01-02T04:13:59.868Z,99374.64
2019-01-02T04:16:26.023Z,99373.64
2019-01-02T04:18:52.210Z,99365.12
2019-01-02T04:21:18.471Z,99367.86
2019-01-02T04:23:44.615Z,99365.19
2019-01-02T04:26:10.904Z,99359.88
2019-01-02T04:28:37.108Z,99351.22
2019-01-02T04:31:03.255Z,99347.56
2019-01-02T04:36:23.018Z,99347.35
2019-01-02T04:38:49.176Z,99348.23
2019-01-02T04:41:15.332Z,99344.06
2019-01-02T04:43:41.521Z,99346.67
2019-01-02T04:46:07.789Z,99351.03
2019-01-02T04:48:33.944Z,99340.91
2019-01-02T04:51:00.136Z,99346.28
2019-01-02T04:53:26.287Z,99343.65
2019-01-02T04:55:52.446Z,99344.14
2019-01-02T04:58:18.636Z,99343.63
2019-01-02T05:00:44.795Z,99342.09
2019-01-02T05:03:10.952Z,99335.23
2019-01-02T05:05:37.146Z,99339.53
2019-01-02T05:08:03.302Z,99332.64
2019-01-02T05:10:29.451Z,99333.33
2019-01-02T05:12:55.635Z,99335.07
2019-01-02T05:15:21.783Z,99325.92
2019-01-02T05:17:47.944Z,99329.66
2019-01-02T05:20:14.135Z,99320.27
2019-01-02T05:22:40.288Z,99319.30
2019-01-02T05:25:47.871Z,99318.08
2019-01-02T05:28:14.025Z,99311.01
2019-01-02T05:30:40.189Z,99314.71
2019-01-02T05:33:06.377Z,99312.39
2019-01-02T05:35:32.532Z,99317.05
2019-01-02T05:37:58.692Z,99318.98
2019-01-02T05:40:24.885Z,99322.84
2019-01-02T05:42:51.037Z,99323.63
2019-01-02T05:45:17.194Z,99324.62
2019-01-02T05:47:43.376Z,99324.28
2019-01-02T05:50:09.537Z,99329.31
2019-01-02T05:52:35.788Z,99330.73
2019-01-02T05:55:01.981Z,99328.91
2019-01-02T05:57:28.136Z,99325.14
2019-01-02T05:59:54.294Z,99331.80
2019-01-02T06:02:20.606Z,99328.16
2019-01-02T06:04:46.767Z,99328.70
2019-01-02T06:07:12.919Z,99321.25
2019-01-02T06:09:39.107Z,99318.34
2019-01-02T06:12:05.271Z,99320.53
2019-01-02T06:14:31.425Z,99317.75
2019-01-02T06:16:57.610Z,99317.64
2019-01-02T06:19:23.769Z,99312.83
2019-01-02T06:21:49.955Z,99314.23
2019-01-02T06:24:16.139Z,99308.98
2019-01-02T06:26:42.399Z,99299.78
2019-01-02T06:29:08.562Z,99300.30
2019-01-02T06:31:34.919Z,99300.05
2019-01-02T06:34:01.097Z,99293.31
2019-01-02T06:36:27.351Z,99285.83
2019-01-02T06:38:53.540Z,99285.94
2019-01-02T06:41:19.692Z,99282.00
2019-01-02T06:43:45.853Z,99279.05
2019-01-02T06:46:12.063Z,99270.61
2019-01-02T06:48:38.217Z,99275.14
2019-01-02T06:51:04.366Z,99265.73
2019-01-02T06:53:30.544Z,99281.42
2019-01-02T06:55:56.798Z,99267.38
2019-01-02T06:58:22.955Z,99280.75
2019-01-02T07:01:30.557Z,99285.28
2019-01-02T07:03:56.712Z,99284.44
2019-01-02T07:06:22.967Z,99297.59
2019-01-02T07:08:49.166Z,99303.47
2019-01-02T07:11:15.329Z,99313.02
2019-01-02T07:13:41.480Z,99313.26
2019-01-02T07:16:07.667Z,99322.22
2019-01-02T07:18:33.820Z,99316.99
2019-01-02T07:20:59.977Z,99316.30
2019-01-02T07:23:26.279Z,99315.73
2019-01-02T07:25:52.567Z,99313.61
2019-01-02T07:28:18.713Z,99307.42
2019-01-02T07:30:45.031Z,99297.06
2019-01-02T07:33:11.233Z,99300.44
2019-01-02T07:36:18.826Z,99288.12
2019-01-02T07:45:39.179Z,99278.38
2019-01-02T07:54:46.304Z,99258.98
2019-01-02T07:57:51.965Z,99250.43
2019-01-02T08:00:59.561Z,99241.86
2019-01-02T08:07:06.056Z,99234.19
2019-01-02T08:10:11.821Z,99226.34
2019-01-02T08:13:19.439Z,99213.48
2019-01-02T08:19:25.902Z,99220.66
2019-01-02T08:28:33.504Z,99210.92
2019-01-02T08:31:39.275Z,99210.38
2019-01-02T08:34:45.078Z,99200.75
2019-01-02T08:47:08.104Z,99196.50
2019-01-02T08:50:13.874Z,99198.74
2019-01-02T08:53:19.722Z,99193.44
2019-01-02T08:59:39.080Z,99190.56
2019-01-02T09:02:44.744Z,99182.45
2019-01-02T09:05:52.338Z,99175.02
2019-01-02T09:24:14.736Z,99132.23
2019-01-02T09:27:15.995Z,99118.75
2019-01-02T09:30:21.785Z,99113.10
2019-01-02T09:45:31.723Z,99093.30
2019-01-02T09:48:37.503Z,99095.83
2019-01-02T09:51:43.171Z,99086.82
2019-01-02T09:54:48.824Z,99085.33
2019-01-02T09:57:54.617Z,99078.34
2019-01-02T10:04:13.989Z,99066.82
2019-01-02T10:07:19.653Z,99055.98
2019-01-02T10:10:25.341Z,99054.09
2019-01-02T10:22:46.197Z,99044.59
2019-01-02T10:25:51.996Z,99039.92
2019-01-02T10:28:59.597Z,99033.63
2019-01-02T10:35:19.470Z,99038.53
2019-01-02T10:38:25.350Z,99039.23
2019-01-02T10:41:34.005Z,99032.61
2019-01-02T10:50:54.255Z,99019.81
2019-01-02T10:57:00.749Z,99018.78
2019-01-02T11:06:08.411Z,99012.88
2019-01-02T11:12:41.374Z,99000.09
2019-01-02T11:15:47.123Z,98992.11
2019-01-02T11:18:54.718Z,98991.95
2019-01-02T11:25:07.208Z,98989.06
2019-01-02T11:31:26.307Z,98981.45
2019-01-02T11:34:32.094Z,98979.38
2019-01-02T11:37:38.021Z,98978.27
2019-01-02T11:40:43.688Z,98979.69
2019-01-02T11:43:49.954Z,98967.08
2019-01-02T11:46:16.112Z,98972.23
2019-01-02T11:48:42.381Z,98965.83
2019-01-02T11:51:08.564Z,98982.11
2019-01-02T11:53:34.746Z,98983.17
2019-01-02T11:56:01.029Z,98966.45
2019-01-02T11:58:27.342Z,98968.44
2019-01-02T12:00:53.491Z,98974.80
2019-01-02T12:03:39.565Z,98962.85
2019-01-02T12:06:05.847Z,98962.00
2019-01-02T12:08:33.546Z,98967.19
2019-01-02T12:10:59.743Z,98972.33
2019-01-02T12:13:26.009Z,98964.60
2019-01-02T12:15:52.179Z,98970.72
2019-01-02T12:18:18.363Z,98970.88
2019-01-02T12:20:44.516Z,98979.36
2019-01-02T12:23:10.700Z,98974.99
2019-01-02T12:25:36.886Z,98968.73
2019-01-02T12:28:03.057Z,98970.20
2019-01-02T12:30:29.415Z,98976.33
2019-01-02T12:32:55.601Z,98978.47
2019-01-02T12:35:21.769Z,98986.10
2019-01-02T12:37:47.931Z,98988.18
2019-01-02T12:40:14.118Z,98987.66
2019-01-02T12:42:40.272Z,98993.67
2019-01-02T12:45:06.705Z,99003.20
2019-01-02T12:47:32.896Z,99001.70
2019-01-02T12:49:59.057Z,99011.26
2019-01-02T12:52:25.319Z,99015.11
2019-01-02T12:54:51.550Z,99013.06
2019-01-02T12:57:17.705Z,99025.36
2019-01-02T12:59:43.862Z,99021.16
2019-01-02T13:02:49.648Z,99018.36
2019-01-02T13:05:55.300Z,99011.50
2019-01-02T13:09:02.917Z,99020.31
2019-01-02T13:15:15.352Z,99026.48
2019-01-02T13:21:34.755Z,99030.53
2019-01-02T13:30:48.093Z,99028.36
2019-01-02T13:33:53.888Z,99032.24
2019-01-02T13:37:01.500Z,99023.59
2019-01-02T13:51:31.435Z,99033.30
2019-01-02T13:53:57.603Z,99038.09
2019-01-02T13:56:23.765Z,99036.16
2019-01-02T13:58:50.067Z,99032.27
2019-01-02T14:01:16.248Z,99032.72
2019-01-02T14:06:36.685Z,99033.59
2019-01-02T14:12:16.698Z,99034.33
2019-01-02T14:14:42.856Z,99040.11
2019-01-02T14:17:09.081Z,99046.42
2019-01-02T14:19:35.337Z,99058.41
2019-01-02T14:22:01.598Z,99064.17
2019-01-02T14:24:27.856Z,99061.30
2019-01-02T14:26:54.356Z,99070.87
2019-01-02T14:29:20.638Z,99068.72
2019-01-02T14:31:46.799Z,99066.04
2019-01-02T14:34:13.017Z,99069.44
2019-01-02T14:36:39.131Z,99068.73
2019-01-02T14:42:06.055Z,99088.31
2019-01-02T14:44:32.208Z,99088.30
2019-01-02T14:46:58.363Z,99087.08
2019-01-02T14:49:24.556Z,99087.92
2019-01-02T14:51:50.709Z,99088.54
2019-01-02T14:54:16.861Z,99092.31
2019-01-02T14:56:43.044Z,99087.58
2019-01-02T14:59:09.207Z,99091.81
2019-01-02T15:01:35.372Z,99086.80
2019-01-02T15:04:01.565Z,99089.09
2019-01-02T15:06:27.725Z,99094.78
2019-01-02T15:08:53.884Z,99094.55
2019-01-02T15:11:20.070Z,99095.12
2019-01-02T15:13:46.222Z,99085.66
2019-01-02T15:16:12.389Z,99086.83
2019-01-02T15:18:38.580Z,99086.53
2019-01-02T15:21:04.729Z,99088.36
2019-01-02T15:23:30.883Z,99092.92
2019-01-02T15:25:57.080Z,99095.20
2019-01-02T15:28:23.346Z,99099.61
2019-01-02T15:30:49.504Z,99112.53
2019-01-02T15:33:15.690Z,99118.34
2019-01-02T15:35:41.846Z,99120.83
2019-01-02T15:38:08.005Z,99126.81
2019-01-02T15:40:34.192Z,99123.73
2019-01-02T15:43:00.351Z,99139.57
2019-01-02T15:45:26.716Z,99135.62
2019-01-02T15:50:26.853Z,99144.20
2019-01-02T15:52:52.980Z,99150.55
2019-01-02T15:55:19.239Z,99148.34
2019-01-02T15:57:45.534Z,99166.66
2019-01-02T16:00:11.824Z,99148.28
2019-01-02T16:02:37.973Z,99146.95
2019-01-02T16:05:45.569Z,99142.75
2019-01-02T16:08:11.827Z,99151.11
2019-01-02T16:10:37.989Z,99150.62
2019-01-02T16:13:04.251Z,99156.45
2019-01-02T16:15:31.191Z,99158.45
2019-01-02T16:17:57.915Z,99168.40
2019-01-02T16:20:24.569Z,99166.55
2019-01-02T16:22:51.157Z,99158.46
2019-01-02T16:25:17.797Z,99163.84
2019-01-02T16:27:44.097Z,99167.61
2019-01-02T16:30:10.358Z,99170.13
2019-01-02T16:32:36.727Z,99174.85
2019-01-02T16:35:03.121Z,99174.55
2019-01-02T16:37:29.279Z,99180.67
2019-01-02T16:39:55.427Z,99174.35
2019-01-02T16:42:21.607Z,99170.81
2019-01-02T16:44:47.775Z,99177.01
2019-01-02T16:47:13.937Z,99181.86
2019-01-02T16:49:40.130Z,99182.66
2019-01-02T16:52:06.288Z,99190.70
2019-01-02T16:54:32.581Z,99193.37
2019-01-02T16:56:58.773Z,99206.94
2019-01-02T16:59:24.933Z,99205.95
2019-01-02T17:01:51.092Z,99210.45
2019-01-02T17:04:17.299Z,99202.64
2019-01-02T17:06:43.563Z,99203.20
2019-01-02T17:09:09.840Z,99201.02
2019-01-02T17:11:36.027Z,99206.55
2019-01-02T17:14:02.180Z,99206.66
2019-01-02T17:16:28.336Z,99200.33
2019-01-02T17:18:54.533Z,99210.80
2019-01-02T17:21:20.807Z,99203.13
2019-01-02T17:23:46.973Z,99207.03
2019-01-02T17:26:13.280Z,99210.88
2019-01-02T17:28:39.534Z,99210.86
2019-01-02T17:31:05.789Z,99207.45
2019-01-02T17:33:32.083Z,99215.70
2019-01-02T17:35:58.240Z,99211.19
2019-01-02T17:38:24.397Z,99218.13
2019-01-02T17:43:50.030Z,99230.95
2019-01-02T17:46:16.203Z,99230.95
2019-01-02T17:48:42.360Z,99245.52
2019-01-02T17:51:08.564Z,99240.72
2019-01-02T17:53:34.838Z,99231.87
2019-01-02T17:56:01.006Z,99236.95
2019-01-02T17:58:27.295Z,99237.30
2019-01-02T18:00:53.462Z,99228.53
2019-01-02T18:03:19.727Z,99234.41
2019-01-02T18:05:46.024Z,99240.27
2019-01-02T18:08:12.289Z,99234.94
2019-01-02T18:10:38.442Z,99236.13
2019-01-02T18:13:04.653Z,99238.45
2019-01-02T18:15:30.811Z,99239.47
2019-01-02T18:17:57.111Z,99238.51
2019-01-02T18:20:23.319Z,99244.34
2019-01-02T18:22:49.467Z,99240.86
2019-01-02T18:25:15.627Z,99251.17
2019-01-02T18:27:41.915Z,99245.50
2019-01-02T18:33:22.227Z,99255.83
2019-01-02T18:35:48.376Z,99263.06
2019-01-02T18:38:14.540Z,99267.05
2019-01-02T18:40:40.724Z,99257.54
2019-01-02T18:43:06.931Z,99255.23
2019-01-02T18:45:33.368Z,99260.89
2019-01-02T18:48:32.447Z,99258.67
2019-01-02T18:50:58.604Z,99265.91
2019-01-02T18:53:24.758Z,99265.39
2019-01-02T18:55:50.953Z,99266.06
2019-01-02T18:58:17.248Z,99262.05
2019-01-02T19:00:43.416Z,99264.41
2019-01-02T19:03:09.598Z,99258.23
2019-01-02T19:05:35.765Z,99270.08
2019-01-02T19:08:01.930Z,99257.86
2019-01-02T19:10:28.113Z,99257.02
2019-01-02T19:12:54.263Z,99267.03
2019-01-02T19:15:20.420Z,99268.06
2019-01-02T19:17:46.614Z,99267.40
2019-01-02T19:20:12.762Z,99257.36
2019-01-02T19:22:38.912Z,99261.69
2019-01-02T19:25:05.133Z,99257.55
2019-01-02T19:27:31.399Z,99252.73
2019-01-02T19:29:57.558Z,99244.52
2019-01-02T19:32:23.752Z,99241.19
2019-01-02T19:34:50.012Z,99246.67
2019-01-02T19:37:16.178Z,99242.00
2019-01-02T19:39:42.376Z,99240.70
2019-01-02T19:42:08.526Z,99254.67
2019-01-02T19:44:34.681Z,99254.70
2019-01-02T19:47:00.866Z,99253.34
2019-01-02T19:49:27.031Z,99254.33
2019-01-02T19:51:53.185Z,99255.56
2019-01-02T19:54:19.475Z,99247.19
2019-01-02T19:56:45.628Z,99244.38
2019-01-02T19:59:11.786Z,99244.69
2019-01-02T20:01:37.977Z,99243.55
2019-01-02T20:04:04.198Z,99252.88
2019-01-02T20:06:30.344Z,99253.02
2019-01-02T20:08:56.635Z,99259.39
2019-01-02T20:11:22.816Z,99246.87
2019-01-02T20:13:48.972Z,99252.02
2019-01-02T20:16:15.163Z,99251.33
2019-01-02T20:18:41.322Z,99250.69
2019-01-02T20:21:07.476Z,99251.02
2019-01-02T20:23:33.685Z,99253.64
2019-01-02T20:25:59.836Z,99253.64
2019-01-02T20:28:25.992Z,99251.28
2019-01-02T20:31:33.607Z,99250.66
2019-01-02T20:33:59.924Z,99252.30
2019-01-02T20:36:26.217Z,99240.48
2019-01-02T20:38:52.434Z,99245.91
2019-01-02T20:44:10.846Z,99250.66
2019-01-02T20:46:37.105Z,99248.00
2019-01-02T20:49:03.911Z,99242.02
2019-01-02T20:51:30.231Z,99244.34
2019-01-02T20:53:56.413Z,99240.38
2019-01-02T20:56:22.594Z,99238.42
2019-01-02T20:58:48.791Z,99243.64
2019-01-02T21:01:14.947Z,99239.08
2019-01-02T21:03:41.208Z,99245.50
2019-01-02T21:06:07.417Z,99242.39
2019-01-02T21:08:33.575Z,99241.18
2019-01-02T21:10:59.738Z,99245.80
2019-01-02T21:13:25.929Z,99245.36
2019-01-02T21:15:52.083Z,99248.66
2019-01-02T21:18:18.240Z,99237.81
2019-01-02T21:20:44.530Z,99242.89
2019-01-02T21:23:10.693Z,99231.63
2019-01-02T21:25:36.848Z,99249.91
2019-01-02T21:28:03.033Z,99246.30
2019-01-02T21:30:29.189Z,99242.97
2019-01-02T21:32:55.343Z,99241.61
2019-01-02T21:35:21.535Z,99232.94
2019-01-02T21:37:47.683Z,99226.45
2019-01-02T21:40:13.840Z,99236.41
2019-01-02T21:42:40.021Z,99240.65
2019-01-02T21:45:06.213Z,99237.55
2019-01-02T21:47:32.373Z,99231.63
2019-01-02T21:49:58.570Z,99229.63
2019-01-02T21:52:24.729Z,99232.30
2019-01-02T21:54:50.887Z,99248.38
2019-01-02T21:57:17.073Z,99249.36
2019-01-02T21:59:43.229Z,99253.64
2019-01-02T22:02:09.383Z,99250.76
2019-01-02T22:04:35.576Z,99252.75
2019-01-02T22:07:01.745Z,99244.66
2019-01-02T22:09:27.905Z,99247.28
2019-01-02T22:11:54.093Z,99245.03
2019-01-02T22:14:20.249Z,99238.65
2019-01-02T22:16:46.395Z,99237.53
2019-01-02T22:19:12.580Z,99247.55
2019-01-02T22:21:38.733Z,99237.33
2019-01-02T22:24:04.889Z,99239.62
2019-01-02T22:26:31.080Z,99248.11
2019-01-02T22:28:57.239Z,99243.67
2019-01-02T22:31:23.403Z,99249.61
2019-01-02T22:33:49.580Z,99247.63
2019-01-02T22:36:15.732Z,99245.45
2019-01-02T22:38:41.993Z,99251.68
2019-01-02T22:41:08.178Z,99255.08
2019-01-02T22:43:34.342Z,99253.64
2019-01-02T22:46:00.502Z,99262.97
2019-01-02T22:48:26.690Z,99254.66
2019-01-02T22:50:52.847Z,99268.67
2019-01-02T22:53:19.011Z,99262.31
2019-01-02T22:55:45.206Z,99268.02
2019-01-02T22:58:11.362Z,99268.36
2019-01-02T23:00:57.422Z,99264.70
2019-01-02T23:03:43.460Z,99276.00
2019-01-02T23:06:29.517Z,99276.62
2019-01-02T23:09:15.523Z,99276.31
2019-01-02T23:12:01.612Z,99277.29
2019-01-02T23:14:47.618Z,99285.45
2019-01-02T23:17:33.685Z,99279.34
2019-01-02T23:20:19.714Z,99288.80
2019-01-02T23:23:05.755Z,99287.72
2019-01-02T23:25:51.764Z,99288.31
2019-01-02T23:31:15.120Z,99281.70
2019-01-02T23:34:01.129Z,99285.24
2019-01-02T23:39:20.994Z,99284.37
2019-01-02T23:42:07.012Z,99290.33
2019-01-02T23:44:53.090Z,99288.50
2019-01-02T23:47:39.097Z,99286.00
2019-01-02T23:52:59.191Z,99291.30
2019-01-02T23:55:45.212Z,99286.55
2019-01-02T23:59:27.165Z,99293.34
